Tropical Cyclones
[Index]
Main Index Home Page Stock Weather Photos Extreme Storms Discussion Storm News and Storm Chasing Reports Tropical Cyclones / Hurricanes / Typhoons Weather Data and Links Wild Fires / Bushfires Weather Observation Techniques Weather Picture Catalogue Tornado Pictures and Reports Stock Video Footage and DVDs for sale
Season 2001-2002 Tropical Cyclone GUILLAUME Track Map
Season 2001-2002 Summaries: [BoM-AU] [JTWC-AU] [JTWC-SIO] [JTWC-SPAC] [JTWC-SH]
<<- Previous TC | JTWC 2001-2002 Season | Next TC ->>

click for intensity scale information  Lat/long Grid: Show Hide

 Date Labels: Show Hide

Joint Typhoon Warning Centre Cyclone Data

Name: GUILLAUME

14 Feb 2002 12:00 UTC to 22 Feb 2002 18:00 UTC

    date/time    lat    long     hPa   cat  kts
2002-02-14 12   17.0    50.7    1002         25          
2002-02-14 18   16.5    51.0    1002         25          
2002-02-15 00   16.2    51.2    1000         30          
2002-02-15 06   15.9    51.4    1000         30          
2002-02-15 12   15.8    51.7    1000         30          
2002-02-15 18   15.6    51.9    1000         30          
2002-02-16 00   15.3    52.3     997         35          
2002-02-16 06   14.9    52.8     997         35          
2002-02-16 12   14.6    53.6     994    1    40          
2002-02-16 18   14.4    54.4     987    1    50          
2002-02-17 00   14.4    55.3     967    3    75          
2002-02-17 06   14.5    56.3     954    3    90          
2002-02-17 12   15.0    57.2     954    3    90          
2002-02-17 18   15.5    58.1     954    3    90          
2002-02-18 00   16.1    58.7     949    3    95          
2002-02-18 06   16.7    59.2     938    4   105          
2002-02-18 12   17.5    59.5     927    4   115          
2002-02-18 18   18.2    59.5     922    4   120          
2002-02-19 00   18.9    59.4     922    4   120          
2002-02-19 06   19.4    59.2     927    4   115          
2002-02-19 12   20.0    58.9     927    4   115          
2002-02-19 18   20.4    58.9     927    4   115          
2002-02-20 00   20.8    58.9     922    4   120          
2002-02-20 06   21.1    59.0     922    4   120          
2002-02-20 12   21.6    59.3     922    4   120          
2002-02-20 18   22.4    59.8     938    4   105          
2002-02-21 00   23.2    60.2     954    3    90          
2002-02-21 06   23.8    60.6     967    3    75          
2002-02-21 12   24.3    61.0     972    2    70          
2002-02-21 18   24.7    61.5     980    2    60          
2002-02-22 00   25.1    61.9     987    1    50          
2002-02-22 06   25.5    62.3     991    1    45          
2002-02-22 12   26.0    63.0     997         35          
2002-02-22 18   26.4    63.6    1000         30          
Winds are 1-min average.

Tropical cyclone tracks developed by Michael Bath using data from the Joint Typhoon Warning Centre Best Tracks and Google Maps.


[Australian Severe Weather index] [Copyright Notice] [Email Contacts] [Search This Site] [Privacy Policy]
Document: tropical_cyclone_guillaume.htm Updated: 28 June 2017